Time;durP1;ratioP1;P1;durP2;ratioP2;P2;SDS_P1;SDS_P2;PMS_P1;PMS_P2;Temp;Humidity;BMP_temperature;BMP_pressure;BME280_temperature;BME280_humidity;BME280_pressure;Samples;Min_cycle;Max_cycle;Signal;HPM_P1;HPM_P2
2022/01/07 00:01:39;;;;;;;4.97;1.25;;;7.60;99.90;;;;;;5026930;28;20037;-63
2022/01/07 00:04:06;;;;;;;9.40;1.25;;;7.60;99.90;;;;;;5025602;28;20025;-63
2022/01/07 00:06:32;;;;;;;7.38;1.70;;;7.60;99.90;;;;;;5025892;28;20604;-63
2022/01/07 00:08:57;;;;;;;7.80;1.52;;;7.60;99.90;;;;;;5027818;28;20105;-63
2022/01/07 00:11:23;;;;;;;5.60;1.27;;;7.00;99.90;;;;;;5027660;28;20030;-63
2022/01/07 00:13:49;;;;;;;8.18;1.30;;;7.60;99.90;;;;;;5028596;28;20037;-63
2022/01/07 00:16:16;;;;;;;4.53;1.40;;;7.60;99.90;;;;;;5027701;28;20021;-63
2022/01/07 00:18:44;;;;;;;4.70;1.10;;;7.70;99.90;;;;;;5024798;28;20026;-63
2022/01/07 00:21:10;;;;;;;8.05;1.30;;;7.70;99.90;;;;;;5014209;28;20037;-63
2022/01/07 00:23:36;;;;;;;5.78;1.30;;;7.60;99.90;;;;;;5027626;28;20458;-63
2022/01/07 00:26:02;;;;;;;5.25;1.58;;;7.60;99.90;;;;;;5028848;28;20108;-63
2022/01/07 00:28:29;;;;;;;6.43;1.23;;;7.60;99.90;;;;;;5027021;28;20045;-63
2022/01/07 00:30:55;;;;;;;6.63;1.33;;;7.60;99.90;;;;;;5024295;28;20028;-63
2022/01/07 00:33:21;;;;;;;3.55;1.10;;;7.70;99.90;;;;;;5024285;28;20033;-63
2022/01/07 00:35:47;;;;;;;5.03;1.20;;;7.70;99.90;;;;;;5025307;28;20018;-63
2022/01/07 00:38:12;;;;;;;9.10;1.50;;;7.70;99.90;;;;;;5026903;28;20036;-63
2022/01/07 00:40:39;;;;;;;7.20;1.50;;;7.70;99.90;;;;;;5027938;28;20037;-63
2022/01/07 00:43:06;;;;;;;6.13;1.60;;;7.60;99.90;;;;;;5024522;28;20033;-63
2022/01/07 00:45:32;;;;;;;4.78;1.40;;;7.60;99.90;;;;;;5024837;28;20033;-63
2022/01/07 00:47:58;;;;;;;6.13;1.58;;;7.70;99.90;;;;;;5025612;28;20036;-63
2022/01/07 00:50:27;;;;;;;7.85;1.63;;;7.70;99.90;;;;;;5025927;28;20057;-63
2022/01/07 00:52:53;;;;;;;8.55;1.60;;;7.70;99.90;;;;;;5028330;28;20109;-63
2022/01/07 00:55:20;;;;;;;9.05;1.55;;;7.70;99.90;;;;;;5026424;28;20124;-63
2022/01/07 00:57:47;;;;;;;6.57;1.38;;;7.70;99.90;;;;;;5027270;28;20021;-63
2022/01/07 01:00:16;;;;;;;8.75;1.75;;;7.60;99.90;;;;;;5026567;28;20038;-63
2022/01/07 01:02:42;;;;;;;7.32;1.45;;;7.60;99.90;;;;;;5026309;28;20516;-63
2022/01/07 01:05:10;;;;;;;8.00;1.40;;;7.60;99.90;;;;;;5027566;28;20059;-63
2022/01/07 01:07:36;;;;;;;6.00;1.50;;;7.60;99.90;;;;;;5027903;28;20052;-63
2022/01/07 01:10:07;;;;;;;9.02;1.70;;;7.60;99.90;;;;;;5026635;28;20068;-63
2022/01/07 01:12:37;;;;;;;8.40;1.73;;;7.60;99.90;;;;;;5024633;28;20025;-63
2022/01/07 01:15:05;;;;;;;7.72;1.48;;;7.60;99.90;;;;;;5026521;28;20033;-63
2022/01/07 01:17:31;;;;;;;11.95;1.73;;;7.60;99.90;;;;;;5025677;28;20037;-63
2022/01/07 01:19:56;;;;;;;10.38;1.90;;;7.60;99.90;;;;;;5027975;28;20163;-63
2022/01/07 01:22:22;;;;;;;8.15;1.92;;;7.50;99.90;;;;;;5024331;28;20045;-63
2022/01/07 01:24:48;;;;;;;8.02;1.60;;;7.60;99.90;;;;;;5026149;28;20028;-63
2022/01/07 01:27:13;;;;;;;7.50;1.63;;;7.60;99.90;;;;;;5024673;28;20050;-63
2022/01/07 01:29:39;;;;;;;9.90;1.98;;;7.60;99.90;;;;;;5024218;28;20500;-63
2022/01/07 01:32:05;;;;;;;8.07;1.77;;;7.60;99.90;;;;;;5027863;28;20033;-63
2022/01/07 01:34:31;;;;;;;9.40;2.45;;;7.60;99.90;;;;;;5025198;28;20025;-63
2022/01/07 01:36:57;;;;;;;5.57;1.60;;;7.60;99.90;;;;;;5024397;28;20037;-63
2022/01/07 01:39:23;;;;;;;9.38;1.73;;;7.50;99.90;;;;;;5025797;28;20030;-63
2022/01/07 01:41:49;;;;;;;12.02;1.90;;;7.50;99.90;;;;;;5023959;28;20437;-63
2022/01/07 01:44:15;;;;;;;12.00;2.45;;;7.50;99.90;;;;;;5026725;28;20104;-63
2022/01/07 01:46:41;;;;;;;8.65;1.60;;;7.50;99.90;;;;;;5027374;28;20121;-63
2022/01/07 01:49:07;;;;;;;8.32;1.90;;;7.40;99.90;;;;;;5027600;28;20041;-63
2022/01/07 01:51:34;;;;;;;10.00;1.95;;;7.40;99.90;;;;;;5028607;28;20033;-63
2022/01/07 01:54:00;;;;;;;8.93;1.70;;;7.50;99.90;;;;;;5030234;28;20022;-63
2022/01/07 01:56:26;;;;;;;8.45;1.80;;;7.50;99.90;;;;;;5029248;28;20026;-63
2022/01/07 01:58:52;;;;;;;10.32;1.83;;;7.50;99.90;;;;;;5030987;28;20597;-63
2022/01/07 02:01:18;;;;;;;14.18;2.20;;;7.50;99.90;;;;;;5027353;28;20046;-63
2022/01/07 02:03:44;;;;;;;10.07;1.88;;;7.60;99.90;;;;;;5027892;28;20033;-63
2022/01/07 02:06:10;;;;;;;11.00;2.03;;;7.60;99.90;;;;;;5028066;28;20029;-63
2022/01/07 02:08:37;;;;;;;8.25;1.83;;;7.60;99.90;;;;;;5028568;28;20014;-63
2022/01/07 02:11:05;;;;;;;7.28;1.55;;;7.50;99.90;;;;;;5031764;28;20037;-63
2022/01/07 02:13:31;;;;;;;10.15;1.95;;;7.50;99.90;;;;;;5030100;28;20029;-63
2022/01/07 02:15:57;;;;;;;11.45;2.17;;;7.50;99.90;;;;;;5027655;28;20496;-63
2022/01/07 02:18:23;;;;;;;12.18;2.22;;;7.50;99.90;;;;;;5027316;28;20022;-63
2022/01/07 02:20:48;;;;;;;16.55;2.30;;;7.40;99.90;;;;;;5027563;28;20045;-63
2022/01/07 02:23:20;;;;;;;9.75;2.33;;;7.40;99.90;;;;;;5029721;28;20033;-63
2022/01/07 02:25:46;;;;;;;12.68;2.33;;;7.50;99.90;;;;;;5029835;28;20114;-63
2022/01/07 02:28:13;;;;;;;9.00;2.08;;;7.50;99.90;;;;;;5027289;28;20080;-63
2022/01/07 02:30:39;;;;;;;11.00;2.40;;;7.50;99.90;;;;;;5020638;28;20115;-63
2022/01/07 02:33:05;;;;;;;13.52;2.80;;;7.50;99.90;;;;;;5026071;28;20028;-63
2022/01/07 02:35:33;;;;;;;11.15;2.45;;;7.40;99.90;;;;;;5028562;28;20405;-63
2022/01/07 02:37:59;;;;;;;13.27;2.58;;;7.40;99.90;;;;;;5030803;28;20036;-63
2022/01/07 02:40:25;;;;;;;12.02;2.80;;;7.30;99.90;;;;;;5029408;28;20033;-63
2022/01/07 02:42:51;;;;;;;10.43;2.78;;;7.30;99.90;;;;;;5029400;28;20026;-63
2022/01/07 02:45:18;;;;;;;12.77;2.92;;;7.30;99.90;;;;;;5027177;28;20026;-63
2022/01/07 02:50:14;;;;;;;11.43;2.60;;;7.30;99.90;;;;;;5029190;28;20030;-63
2022/01/07 02:52:40;;;;;;;13.10;2.40;;;7.20;99.90;;;;;;5031233;28;20104;-63
2022/01/07 02:55:07;;;;;;;12.43;3.03;;;7.30;99.90;;;;;;5029368;28;20473;-63
2022/01/07 02:57:33;;;;;;;13.63;2.60;;;7.20;99.90;;;;;;5028326;28;20036;-63
2022/01/07 02:59:59;;;;;;;11.90;2.63;;;7.20;99.90;;;;;;5026915;28;20038;-63
2022/01/07 03:02:24;;;;;;;16.92;3.45;;;7.20;99.90;;;;;;5028358;28;21573;-63
2022/01/07 03:04:50;;;;;;;11.90;2.42;;;7.30;99.90;;;;;;5030536;28;20152;-63
2022/01/07 03:07:16;;;;;;;24.00;3.40;;;7.20;99.90;;;;;;5026447;28;20034;-63
2022/01/07 03:09:41;;;;;;;10.07;2.53;;;7.20;99.90;;;;;;5026541;28;20021;-63
2022/01/07 03:12:07;;;;;;;16.83;3.33;;;7.30;99.90;;;;;;5028637;28;20670;-63
2022/01/07 03:14:33;;;;;;;16.40;2.63;;;7.30;99.90;;;;;;5026906;28;20018;-63
2022/01/07 03:16:59;;;;;;;16.63;3.10;;;7.30;99.90;;;;;;5030687;28;20035;-63
2022/01/07 03:19:24;;;;;;;11.65;2.53;;;7.30;99.90;;;;;;5026380;28;20029;-63
2022/01/07 03:21:50;;;;;;;16.60;2.75;;;7.30;99.90;;;;;;5026663;28;20037;-63
2022/01/07 03:24:16;;;;;;;15.25;2.58;;;7.30;99.90;;;;;;5028139;28;20018;-63
2022/01/07 03:26:41;;;;;;;15.07;2.50;;;7.40;99.90;;;;;;5026366;28;20021;-63
2022/01/07 03:29:08;;;;;;;15.07;2.38;;;7.40;99.90;;;;;;5029675;28;20767;-63
2022/01/07 03:31:34;;;;;;;9.65;2.70;;;7.40;99.90;;;;;;5027335;28;20136;-63
2022/01/07 03:33:59;;;;;;;24.92;3.97;;;7.40;99.90;;;;;;5026674;28;20580;-63
2022/01/07 03:36:25;;;;;;;12.00;2.67;;;7.40;99.90;;;;;;5027061;28;20029;-63
2022/01/07 03:38:51;;;;;;;10.10;1.92;;;7.40;99.90;;;;;;5026319;28;20022;-63
2022/01/07 03:41:16;;;;;;;14.88;2.25;;;7.40;99.90;;;;;;5028357;28;20049;-63
2022/01/07 03:43:42;;;;;;;15.35;2.30;;;7.50;99.90;;;;;;5027643;28;20025;-63
2022/01/07 03:46:08;;;;;;;12.85;2.13;;;7.50;99.90;;;;;;5026051;28;20037;-63
2022/01/07 03:48:34;;;;;;;18.33;2.63;;;7.50;99.90;;;;;;5025413;28;20029;-63
2022/01/07 03:50:59;;;;;;;12.38;2.28;;;7.50;99.90;;;;;;5026184;28;20083;-63
2022/01/07 03:53:25;;;;;;;10.32;1.90;;;7.50;99.90;;;;;;5027537;28;20105;-63
2022/01/07 03:55:52;;;;;;;13.27;2.20;;;7.50;99.90;;;;;;5028628;28;20060;-63
2022/01/07 03:58:19;;;;;;;13.07;2.50;;;7.60;99.90;;;;;;5025543;28;20034;-63
2022/01/07 04:00:45;;;;;;;16.05;2.08;;;7.60;99.90;;;;;;5025251;28;20112;-63
2022/01/07 04:03:14;;;;;;;14.18;2.20;;;7.60;99.90;;;;;;5025511;28;20029;-63
2022/01/07 04:05:41;;;;;;;14.52;2.05;;;7.60;99.90;;;;;;5019870;28;20029;-63
2022/01/07 04:08:07;;;;;;;15.73;2.03;;;7.60;99.90;;;;;;5028949;28;20049;-63
2022/01/07 04:10:33;;;;;;;20.98;2.50;;;7.60;99.90;;;;;;5025994;28;20022;-63
2022/01/07 04:12:59;;;;;;;17.30;2.30;;;7.60;99.90;;;;;;5025369;28;20034;-63
2022/01/07 04:15:25;;;;;;;14.25;2.30;;;7.60;99.90;;;;;;5025688;28;20029;-63
2022/01/07 04:17:52;;;;;;;17.17;2.60;;;7.60;99.90;;;;;;5025075;28;20036;-63
2022/01/07 04:20:22;;;;;;;16.23;2.50;;;7.60;99.90;;;;;;5027742;28;20102;-63
2022/01/07 04:22:49;;;;;;;9.65;1.88;;;7.60;99.90;;;;;;5028171;28;20042;-63
2022/01/07 04:25:20;;;;;;;13.55;2.33;;;7.60;99.90;;;;;;5025043;28;20026;-63
2022/01/07 04:27:50;;;;;;;16.10;2.17;;;7.60;99.90;;;;;;5025037;28;20045;-63
2022/01/07 04:30:16;;;;;;;14.50;2.15;;;7.60;99.90;;;;;;5024914;28;20112;-63
2022/01/07 04:32:42;;;;;;;15.15;2.88;;;7.60;99.90;;;;;;5026845;28;20025;-63
2022/01/07 04:35:10;;;;;;;14.75;1.83;;;7.60;99.90;;;;;;5028500;28;20053;-63
2022/01/07 04:37:36;;;;;;;14.13;2.05;;;7.60;99.90;;;;;;5026243;28;20029;-63
2022/01/07 04:40:08;;;;;;;18.23;2.38;;;7.60;99.90;;;;;;5024567;28;20033;-63
2022/01/07 04:42:34;;;;;;;14.80;1.95;;;7.60;99.90;;;;;;5024297;28;20484;-63
2022/01/07 04:45:00;;;;;;;10.75;1.60;;;7.50;99.90;;;;;;5026559;28;20026;-63
2022/01/07 04:47:25;;;;;;;15.32;1.90;;;7.40;99.90;;;;;;5025974;28;20112;-63
2022/01/07 04:49:51;;;;;;;13.15;1.77;;;7.40;99.90;;;;;;5027436;28;20101;-63
2022/01/07 04:52:17;;;;;;;14.32;2.30;;;7.30;99.90;;;;;;5027220;28;20034;-63
2022/01/07 04:54:46;;;;;;;14.95;2.13;;;7.30;99.90;;;;;;5024464;28;20025;-63
2022/01/07 04:57:12;;;;;;;16.73;2.15;;;7.20;99.90;;;;;;5026632;28;20034;-63
2022/01/07 04:59:37;;;;;;;14.82;1.85;;;7.20;99.90;;;;;;5025341;28;20032;-63
2022/01/07 05:02:03;;;;;;;13.50;1.83;;;7.20;99.90;;;;;;5029775;28;20501;-63
2022/01/07 05:04:29;;;;;;;13.73;2.28;;;7.10;99.90;;;;;;5024760;28;20386;-63
2022/01/07 05:06:55;;;;;;;13.07;1.60;;;7.10;99.90;;;;;;5024662;28;20036;-63
2022/01/07 05:09:21;;;;;;;11.88;1.63;;;7.10;99.90;;;;;;5026265;28;20032;-63
2022/01/07 05:11:49;;;;;;;9.43;1.42;;;7.10;99.90;;;;;;5024328;28;20030;-63
2022/01/07 05:14:15;;;;;;;10.52;1.98;;;7.00;99.90;;;;;;5026943;28;20049;-63
2022/01/07 05:16:41;;;;;;;14.70;1.70;;;7.00;99.90;;;;;;5026615;28;20033;-63
2022/01/07 05:19:09;;;;;;;9.93;1.75;;;7.00;99.90;;;;;;5023648;28;20036;-63
2022/01/07 05:21:36;;;;;;;12.82;1.70;;;7.00;99.90;;;;;;5024467;28;20559;-63
2022/01/07 05:24:02;;;;;;;9.77;1.63;;;6.90;99.90;;;;;;5030203;28;20036;-63
2022/01/07 05:26:28;;;;;;;14.52;1.80;;;6.90;99.90;;;;;;5029160;28;20563;-63
2022/01/07 05:28:54;;;;;;;13.38;1.75;;;6.90;99.90;;;;;;5031953;28;20049;-63
2022/01/07 05:31:22;;;;;;;15.48;2.15;;;6.90;99.90;;;;;;5029769;28;20543;-63
2022/01/07 05:33:49;;;;;;;14.07;2.05;;;6.80;99.90;;;;;;5029288;28;20108;-63
2022/01/07 05:36:15;;;;;;;11.57;1.70;;;6.80;99.90;;;;;;5028677;28;20068;-63
2022/01/07 05:38:41;;;;;;;10.25;1.65;;;6.80;99.90;;;;;;5027482;28;20112;-63
2022/01/07 05:41:07;;;;;;;12.18;1.75;;;6.80;99.90;;;;;;5031267;28;20476;-62
2022/01/07 05:43:32;;;;;;;13.50;1.92;;;6.80;99.90;;;;;;5029249;28;20030;-62
2022/01/07 05:45:58;;;;;;;12.68;1.98;;;6.70;99.90;;;;;;5027600;28;20037;-63
2022/01/07 05:48:24;;;;;;;13.05;1.52;;;6.70;99.90;;;;;;5029964;28;20754;-63
2022/01/07 05:50:50;;;;;;;9.65;1.85;;;6.70;99.90;;;;;;5028545;28;20029;-63
2022/01/07 05:53:16;;;;;;;11.75;1.67;;;6.70;99.90;;;;;;5028348;28;20485;-63
2022/01/07 05:55:42;;;;;;;9.40;1.58;;;6.70;99.90;;;;;;5039297;28;20045;-65
2022/01/07 05:58:07;;;;;;;9.02;1.60;;;6.70;99.90;;;;;;5031037;28;20033;-66
2022/01/07 06:00:33;;;;;;;8.18;1.33;;;6.60;99.90;;;;;;5030987;28;20021;-64
2022/01/07 06:02:59;;;;;;;12.93;2.38;;;6.60;99.90;;;;;;5027952;28;20037;-63
2022/01/07 06:05:25;;;;;;;11.40;1.58;;;6.60;99.90;;;;;;5029153;28;20043;-64
2022/01/07 06:07:54;;;;;;;15.85;2.00;;;6.60;99.90;;;;;;5032453;28;20037;-63
2022/01/07 06:10:20;;;;;;;8.57;1.40;;;6.60;99.90;;;;;;5028842;28;20061;-65
2022/01/07 06:12:45;;;;;;;11.73;1.40;;;6.60;99.90;;;;;;5030757;28;20043;-64
2022/01/07 06:15:11;;;;;;;9.65;1.25;;;6.50;99.90;;;;;;5034294;28;20389;-66
2022/01/07 06:17:37;;;;;;;7.85;1.42;;;6.50;99.90;;;;;;5029256;28;20481;-63
2022/01/07 06:20:05;;;;;;;10.02;1.48;;;6.50;99.90;;;;;;5030725;28;20036;-63
2022/01/07 06:22:31;;;;;;;12.63;1.92;;;6.50;99.90;;;;;;5029592;28;20116;-62
2022/01/07 06:24:57;;;;;;;6.88;1.25;;;6.40;99.90;;;;;;5027931;28;20143;-62
2022/01/07 06:27:22;;;;;;;8.85;1.73;;;6.40;99.90;;;;;;5028286;28;20921;-62
2022/01/07 06:29:48;;;;;;;11.13;1.38;;;6.40;99.90;;;;;;5028301;28;20018;-62
2022/01/07 06:32:14;;;;;;;8.45;1.10;;;6.40;99.90;;;;;;5029941;28;20030;-63
2022/01/07 06:34:40;;;;;;;13.82;1.85;;;6.40;99.90;;;;;;5026635;28;20022;-62
2022/01/07 06:37:06;;;;;;;11.77;1.92;;;6.30;99.90;;;;;;5029928;28;20061;-62
2022/01/07 06:39:32;;;;;;;8.38;1.67;;;6.30;99.90;;;;;;5028487;28;20168;-62
2022/01/07 06:41:59;;;;;;;10.13;1.30;;;6.30;99.90;;;;;;5030187;28;20048;-61
2022/01/07 06:44:25;;;;;;;9.63;1.23;;;6.30;99.90;;;;;;5043502;28;20034;-62
2022/01/07 06:46:51;;;;;;;9.45;1.15;;;6.30;99.90;;;;;;5029449;28;20405;-61
2022/01/07 06:49:17;;;;;;;14.70;2.13;;;6.20;99.90;;;;;;5027522;28;20026;-62
2022/01/07 06:51:44;;;;;;;13.50;1.85;;;6.20;99.90;;;;;;5030546;28;20488;-62
2022/01/07 06:54:11;;;;;;;11.95;1.83;;;6.20;99.90;;;;;;5026851;28;20036;-62
2022/01/07 06:56:43;;;;;;;8.50;1.30;;;6.10;99.90;;;;;;5031414;28;20160;-63
2022/01/07 06:59:12;;;;;;;9.25;1.60;;;6.20;99.90;;;;;;5030180;28;20036;-63
2022/01/07 07:01:39;;;;;;;8.10;1.60;;;6.20;99.90;;;;;;5030208;28;20038;-62
2022/01/07 07:04:04;;;;;;;12.82;1.60;;;6.20;99.90;;;;;;5026757;28;20064;-62
2022/01/07 07:06:30;;;;;;;10.15;1.65;;;6.20;99.90;;;;;;5029999;28;20188;-62
2022/01/07 07:08:56;;;;;;;11.38;1.50;;;6.30;99.90;;;;;;5041772;28;20025;-62
2022/01/07 07:11:22;;;;;;;11.02;2.35;;;6.30;99.90;;;;;;5029990;28;20041;-63
2022/01/07 07:13:47;;;;;;;10.55;1.40;;;6.30;99.90;;;;;;5042687;28;20021;-62
2022/01/07 07:16:15;;;;;;;14.57;1.80;;;6.30;99.90;;;;;;5034030;28;20037;-62
2022/01/07 07:18:40;;;;;;;13.20;1.70;;;6.30;99.90;;;;;;5032292;28;20026;-63
2022/01/07 07:21:06;;;;;;;14.70;2.05;;;6.30;99.90;;;;;;5028127;28;20041;-62
2022/01/07 07:23:32;;;;;;;10.25;1.77;;;6.30;99.90;;;;;;5029846;28;20030;-64
2022/01/07 07:25:58;;;;;;;14.15;2.03;;;6.30;99.90;;;;;;5030732;28;20026;-63
2022/01/07 07:28:24;;;;;;;13.65;1.60;;;6.40;99.90;;;;;;5028962;28;20064;-63
2022/01/07 07:30:52;;;;;;;11.52;1.40;;;6.30;99.90;;;;;;5025437;28;20550;-63
2022/01/07 07:38:48;;;;;;;12.20;1.48;;;6.40;99.90;;;;;;5020235;28;20044;-63
2022/01/07 07:41:14;;;;;;;11.07;1.27;;;6.40;99.90;;;;;;5026111;28;20041;-63
2022/01/07 07:43:41;;;;;;;12.70;1.55;;;6.40;99.90;;;;;;5025400;28;20022;-63
2022/01/07 07:46:08;;;;;;;17.02;2.45;;;6.40;99.90;;;;;;5023551;28;20029;-63
2022/01/07 07:48:35;;;;;;;9.52;1.50;;;6.40;99.90;;;;;;5023206;28;20037;-63
2022/01/07 07:51:01;;;;;;;10.27;1.30;;;6.40;99.90;;;;;;4994033;28;20071;-63
2022/01/07 07:53:27;;;;;;;15.27;1.70;;;6.40;99.90;;;;;;5023843;28;20521;-63
2022/01/07 07:55:53;;;;;;;12.73;1.80;;;6.40;99.90;;;;;;5020646;28;20056;-62
2022/01/07 07:58:20;;;;;;;10.30;1.60;;;6.30;99.90;;;;;;5024043;28;20099;-62
2022/01/07 08:00:47;;;;;;;17.17;1.80;;;6.30;99.90;;;;;;5023836;28;20037;-62
2022/01/07 08:03:13;;;;;;;24.05;2.78;;;6.30;99.90;;;;;;5024000;28;20037;-63
2022/01/07 08:05:39;;;;;;;14.70;1.90;;;6.40;99.90;;;;;;5023451;28;20063;-63
2022/01/07 08:08:05;;;;;;;12.05;1.80;;;7.30;99.90;;;;;;5031352;28;20037;-62
2022/01/07 08:10:32;;;;;;;18.48;2.28;;;6.40;99.90;;;;;;5025379;28;20025;-63
2022/01/07 08:13:27;;;;;;;12.93;1.95;;;6.30;99.90;;;;;;5025094;28;20052;-63
2022/01/07 08:15:58;;;;;;;16.73;2.13;;;6.30;99.90;;;;;;5026123;28;20159;-62
2022/01/07 08:18:50;;;;;;;16.55;2.10;;;6.30;99.90;;;;;;5024839;28;20030;-63
2022/01/07 08:21:16;;;;;;;11.38;2.25;;;6.30;99.90;;;;;;5024691;28;20053;-63
2022/01/07 08:23:43;;;;;;;15.30;2.08;;;6.30;99.90;;;;;;5025263;28;20029;-62
2022/01/07 08:26:11;;;;;;;16.13;2.00;;;6.30;99.90;;;;;;5027884;28;20057;-63
2022/01/07 08:28:45;;;;;;;15.00;2.28;;;6.20;99.90;;;;;;5028095;28;20041;-63
2022/01/07 08:36:37;;;;;;;11.68;1.60;;;6.60;99.90;;;;;;5026668;28;20028;-63
2022/01/07 08:39:06;;;;;;;14.63;1.90;;;6.60;99.90;;;;;;5024854;28;20408;-63
2022/01/07 08:41:33;;;;;;;12.73;2.13;;;6.50;99.90;;;;;;5025478;28;20174;-63
2022/01/07 08:43:59;;;;;;;11.50;2.25;;;6.70;99.90;;;;;;5028492;28;20098;-62
2022/01/07 08:46:25;;;;;;;10.38;2.30;;;7.10;99.90;;;;;;5024917;28;20416;-63
2022/01/07 08:48:51;;;;;;;8.13;1.77;;;7.60;99.90;;;;;;5024931;28;20027;-62
2022/01/07 08:51:17;;;;;;;16.33;1.98;;;8.00;99.90;;;;;;5024564;28;20063;-63
2022/01/07 08:53:43;;;;;;;11.15;1.67;;;8.40;99.90;;;;;;5027164;28;20104;-63
2022/01/07 08:56:09;;;;;;;8.48;1.67;;;8.60;99.90;;;;;;5027929;28;20028;-63
2022/01/07 08:58:35;;;;;;;8.00;1.60;;;8.80;99.90;;;;;;5026913;28;20052;-63
2022/01/07 09:01:01;;;;;;;13.35;1.67;;;9.10;99.90;;;;;;5023703;28;20029;-63
2022/01/07 09:03:27;;;;;;;12.05;1.83;;;9.30;99.90;;;;;;5023841;28;20025;-64
2022/01/07 09:05:56;;;;;;;13.80;1.67;;;9.60;99.90;;;;;;5024771;28;20030;-65
2022/01/07 09:08:26;;;;;;;9.25;1.63;;;9.80;99.90;;;;;;5026829;28;20064;-65
2022/01/07 09:10:52;;;;;;;10.90;1.58;;;10.20;99.90;;;;;;5027447;28;20473;-64
2022/01/07 09:13:20;;;;;;;8.98;1.70;;;10.40;99.90;;;;;;5024391;28;20029;-64
2022/01/07 09:15:46;;;;;;;11.23;1.83;;;10.60;99.90;;;;;;5025390;28;20057;-64
2022/01/07 09:18:14;;;;;;;8.35;1.38;;;10.80;99.90;;;;;;5024474;28;20029;-65
2022/01/07 09:20:41;;;;;;;6.88;1.30;;;11.20;99.90;;;;;;5024678;28;25389;-65
2022/01/07 09:23:08;;;;;;;13.10;1.40;;;11.40;99.90;;;;;;5028221;28;20152;-65
2022/01/07 09:25:34;;;;;;;7.00;1.40;;;11.40;99.90;;;;;;5025725;28;20477;-65
2022/01/07 09:28:00;;;;;;;8.15;1.13;;;11.00;99.90;;;;;;5024058;28;20132;-63
2022/01/07 09:30:26;;;;;;;7.50;1.45;;;10.40;99.90;;;;;;5024911;28;20477;-64
2022/01/07 09:32:52;;;;;;;7.38;1.50;;;10.10;99.90;;;;;;5024507;28;20018;-64
2022/01/07 09:35:18;;;;;;;7.43;1.20;;;9.90;99.90;;;;;;5027274;28;20033;-64
2022/01/07 09:37:50;;;;;;;10.05;1.45;;;9.80;99.90;;;;;;5026581;28;20032;-64
2022/01/07 09:40:19;;;;;;;8.23;1.40;;;9.60;99.90;;;;;;5026527;28;20086;-63
2022/01/07 09:43:01;;;;;;;8.93;1.48;;;9.60;99.90;;;;;;5024328;28;20032;-64
2022/01/07 09:45:28;;;;;;;5.82;1.23;;;9.60;99.90;;;;;;5022689;28;20034;-63
2022/01/07 09:47:55;;;;;;;7.60;1.30;;;9.60;99.90;;;;;;5024219;28;20096;-64
2022/01/07 09:50:22;;;;;;;7.30;1.05;;;9.60;99.90;;;;;;5026557;28;20029;-64
2022/01/07 09:52:48;;;;;;;9.75;1.35;;;9.60;99.90;;;;;;5027094;28;20519;-63
2022/01/07 09:55:18;;;;;;;7.57;1.73;;;9.50;99.90;;;;;;5024338;28;20018;-64
2022/01/07 09:57:52;;;;;;;6.65;1.17;;;9.50;99.90;;;;;;5024776;28;20033;-64
2022/01/07 10:00:18;;;;;;;10.80;1.55;;;9.60;99.90;;;;;;5023991;28;20021;-64
2022/01/07 10:03:10;;;;;;;8.90;1.20;;;9.50;99.90;;;;;;5023711;28;20041;-64
2022/01/07 10:05:40;;;;;;;8.18;1.20;;;9.50;99.90;;;;;;5019411;28;20034;-64
2022/01/07 10:08:26;;;;;;;6.05;1.02;;;9.40;99.90;;;;;;5029081;28;20021;-64
2022/01/07 10:11:14;;;;;;;10.52;1.50;;;9.50;99.90;;;;;;5030578;28;20109;-64
2022/01/07 10:13:48;;;;;;;11.00;1.30;;;9.50;99.90;;;;;;5031096;28;20040;-64
2022/01/07 10:16:22;;;;;;;6.53;1.42;;;9.60;99.90;;;;;;5027386;28;20104;-64
2022/01/07 10:18:48;;;;;;;9.63;2.00;;;9.70;99.90;;;;;;5029931;28;20036;-64
2022/01/07 10:21:16;;;;;;;8.23;1.50;;;9.80;99.90;;;;;;5021751;28;20324;-64
2022/01/07 10:26:41;;;;;;;10.57;1.67;;;10.50;99.90;;;;;;5024258;28;20111;-67
2022/01/07 10:29:28;;;;;;;8.23;1.30;;;11.50;99.90;;;;;;5036676;28;20036;-66
2022/01/07 10:32:23;;;;;;;7.15;1.65;;;12.50;96.20;;;;;;5027889;28;20116;-66
2022/01/07 10:35:20;;;;;;;8.32;1.67;;;13.30;93.70;;;;;;5029809;28;20061;-65
2022/01/07 10:37:51;;;;;;;7.53;1.70;;;13.90;88.20;;;;;;5031447;28;20608;-65
2022/01/07 10:40:24;;;;;;;12.15;2.08;;;14.70;84.80;;;;;;5028263;28;20017;-65
2022/01/07 10:43:08;;;;;;;9.77;1.80;;;13.60;86.60;;;;;;5026848;28;20087;-64
2022/01/07 10:45:34;;;;;;;11.88;1.98;;;12.80;94.50;;;;;;5027252;28;20056;-64
2022/01/07 10:48:01;;;;;;;9.57;1.67;;;12.40;96.50;;;;;;5029351;28;20048;-64
2022/01/07 10:50:27;;;;;;;12.57;2.20;;;14.20;90.40;;;;;;5029373;28;20037;-65
2022/01/07 10:53:17;;;;;;;14.15;2.42;;;15.40;73.40;;;;;;5033537;28;20022;-65
2022/01/07 10:56:09;;;;;;;75.05;5.88;;;14.60;75.30;;;;;;5030915;28;20033;-64
2022/01/07 10:58:51;;;;;;;30.33;3.00;;;13.60;86.00;;;;;;5030938;28;20072;-64
2022/01/07 11:01:20;;;;;;;21.45;2.67;;;13.10;91.60;;;;;;5030312;28;20060;-64
2022/01/07 11:03:51;;;;;;;25.13;2.30;;;13.90;80.30;;;;;;5033004;28;20452;-64
2022/01/07 11:06:18;;;;;;;18.55;1.85;;;13.60;79.80;;;;;;5028332;28;20087;-64
2022/01/07 11:08:44;;;;;;;17.33;3.00;;;13.80;81.20;;;;;;5027174;28;20112;-65
2022/01/07 11:11:11;;;;;;;16.90;2.33;;;15.00;65.60;;;;;;5037718;28;20429;-65
2022/01/07 11:13:38;;;;;;;15.50;1.70;;;15.80;60.80;;;;;;5026088;28;20493;-66
2022/01/07 11:16:05;;;;;;;13.63;1.85;;;16.00;56.90;;;;;;5025273;28;20046;-66
2022/01/07 11:18:32;;;;;;;9.48;1.70;;;16.60;57.90;;;;;;5025916;28;20556;-66
2022/01/07 11:21:02;;;;;;;13.57;2.25;;;16.70;53.80;;;;;;5024689;28;20124;-65
2022/01/07 11:23:30;;;;;;;19.05;2.30;;;16.40;56.20;;;;;;5028734;28;20582;-65
2022/01/07 11:26:21;;;;;;;18.10;2.55;;;16.20;57.60;;;;;;5037202;28;20037;-64
2022/01/07 11:29:00;;;;;;;18.15;2.50;;;16.60;54.30;;;;;;5030857;28;20503;-65
2022/01/07 11:31:27;;;;;;;14.55;2.33;;;17.50;51.10;;;;;;5026399;28;20481;-65
2022/01/07 11:34:18;;;;;;;17.58;2.53;;;17.40;50.50;;;;;;5027988;28;20029;-67
2022/01/07 11:36:45;;;;;;;16.38;2.20;;;17.50;49.90;;;;;;5023691;28;20037;-64
2022/01/07 11:39:10;;;;;;;13.13;2.28;;;16.90;53.30;;;;;;5025829;28;20071;-66
2022/01/07 11:41:50;;;;;;;14.73;2.45;;;18.10;50.20;;;;;;5035370;28;20056;-66
2022/01/07 11:44:28;;;;;;;14.93;2.03;;;17.30;52.60;;;;;;5028295;28;20029;-65
2022/01/07 11:47:23;;;;;;;14.68;2.13;;;16.60;51.80;;;;;;5033464;28;20029;-66
2022/01/07 11:50:05;;;;;;;13.02;2.80;;;16.00;53.00;;;;;;5029061;28;20076;-65
2022/01/07 11:52:37;;;;;;;18.30;2.30;;;18.40;48.70;;;;;;5028606;28;20622;-65
2022/01/07 11:55:23;;;;;;;15.90;2.30;;;20.90;48.10;;;;;;5028413;28;20028;-65
2022/01/07 11:57:55;;;;;;;17.90;2.50;;;18.60;47.10;;;;;;5020515;28;20025;-65
2022/01/07 12:00:50;;;;;;;14.70;2.40;;;19.30;44.10;;;;;;5025998;28;20030;-66
2022/01/07 12:03:43;;;;;;;17.23;2.80;;;19.90;43.40;;;;;;5025474;28;20033;-66
2022/01/07 12:06:24;;;;;;;15.57;2.13;;;19.80;43.90;;;;;;5028764;28;20037;-66
2022/01/07 12:08:56;;;;;;;;;;;19.80;43.80;;;;;;5027571;28;20030;-66
2022/01/07 12:11:23;;;;;;;17.30;2.70;;;20.30;43.10;;;;;;5027414;28;19980;-66
2022/01/07 12:13:49;;;;;;;12.40;2.20;;;20.40;41.70;;;;;;5028500;28;20033;-66
2022/01/07 12:16:22;;;;;;;14.65;2.55;;;20.50;41.40;;;;;;5029417;28;20033;-66
2022/01/07 12:19:01;;;;;;;16.27;2.53;;;20.90;41.30;;;;;;5028055;28;20025;-66
2022/01/07 12:21:27;;;;;;;12.77;2.42;;;20.80;40.00;;;;;;5019900;28;20087;-67
2022/01/07 12:24:26;;;;;;;14.43;2.90;;;20.70;40.20;;;;;;5026462;28;20044;-66
2022/01/07 12:27:09;;;;;;;13.90;2.40;;;20.10;41.00;;;;;;5005890;28;20547;-66
2022/01/07 12:29:37;;;;;;;15.15;2.50;;;20.10;41.60;;;;;;4999827;28;20042;-65
2022/01/07 14:12:52;;;;;;;11.20;1.77;;;11.70;93.80;;;;;;5060416;28;20494;-73
2022/01/07 14:15:21;;;;;;;14.98;2.03;;;12.10;90.80;;;;;;5052476;28;20017;-74
2022/01/07 14:17:47;;;;;;;12.13;1.90;;;12.60;95.20;;;;;;5052982;28;20112;-73
2022/01/07 14:20:14;;;;;;;13.45;1.80;;;12.00;82.40;;;;;;5048298;28;20025;-73
2022/01/07 14:22:45;;;;;;;11.07;1.58;;;12.60;92.90;;;;;;5041184;28;20033;-73
2022/01/07 14:25:19;;;;;;;14.70;2.03;;;12.20;84.10;;;;;;5043098;28;20630;-71
2022/01/07 14:27:45;;;;;;;14.80;1.77;;;;;;;;;;5039094;28;20065;-72
2022/01/07 14:30:16;;;;;;;35.53;2.53;;;12.10;91.00;;;;;;5043208;28;20528;-72
2022/01/07 14:32:43;;;;;;;14.63;1.73;;;12.10;82.90;;;;;;5042174;28;20046;-72
2022/01/07 14:35:10;;;;;;;17.33;2.63;;;10.80;93.30;;;;;;5046578;28;20021;-72
2022/01/07 14:37:37;;;;;;;15.32;2.20;;;12.70;94.90;;;;;;5043875;28;20049;-72
2022/01/07 14:40:04;;;;;;;10.77;1.65;;;12.20;84.20;;;;;;5048577;28;20033;-72
2022/01/07 14:42:30;;;;;;;22.40;2.30;;;12.70;92.50;;;;;;5038137;28;20034;-71
2022/01/07 14:44:56;;;;;;;16.58;2.08;;;11.40;93.70;;;;;;5042514;28;20482;-71
2022/01/07 14:47:23;;;;;;;12.32;2.28;;;12.80;88.10;;;;;;5043312;28;20057;-71
2022/01/07 14:49:50;;;;;;;14.02;2.13;;;12.80;92.90;;;;;;5039122;28;20032;-71
2022/01/07 14:52:17;;;;;;;13.07;2.17;;;12.00;87.30;;;;;;5042941;28;20044;-70